sensor_id;sensor_type;location;lat;lon;timestamp;P1;durP1;ratioP1;P2;durP2;ratioP2
1436;SDS011;712;51.026;13.792;2024-02-28T00:00:33;53.50;;;19.57;;
1436;SDS011;712;51.026;13.792;2024-02-28T00:02:58;47.37;;;18.60;;
1436;SDS011;712;51.026;13.792;2024-02-28T00:05:23;45.70;;;17.20;;
1436;SDS011;712;51.026;13.792;2024-02-28T00:07:48;48.80;;;17.80;;
1436;SDS011;712;51.026;13.792;2024-02-28T00:10:13;54.23;;;18.97;;
1436;SDS011;712;51.026;13.792;2024-02-28T00:12:39;47.50;;;16.90;;
1436;SDS011;712;51.026;13.792;2024-02-28T00:15:04;46.23;;;17.37;;
1436;SDS011;712;51.026;13.792;2024-02-28T00:17:30;49.33;;;17.92;;
1436;SDS011;712;51.026;13.792;2024-02-28T00:19:55;50.13;;;18.13;;
1436;SDS011;712;51.026;13.792;2024-02-28T00:22:21;39.28;;;16.42;;
1436;SDS011;712;51.026;13.792;2024-02-28T00:24:46;49.20;;;18.27;;
1436;SDS011;712;51.026;13.792;2024-02-28T00:27:12;44.38;;;16.55;;
1436;SDS011;712;51.026;13.792;2024-02-28T00:29:37;43.27;;;16.57;;
1436;SDS011;712;51.026;13.792;2024-02-28T00:32:02;45.50;;;17.67;;
1436;SDS011;712;51.026;13.792;2024-02-28T00:34:27;47.60;;;18.23;;
1436;SDS011;712;51.026;13.792;2024-02-28T00:36:52;44.07;;;17.43;;
1436;SDS011;712;51.026;13.792;2024-02-28T00:39:17;47.70;;;18.38;;
1436;SDS011;712;51.026;13.792;2024-02-28T00:41:43;44.25;;;17.50;;
1436;SDS011;712;51.026;13.792;2024-02-28T00:44:08;52.53;;;18.75;;
1436;SDS011;712;51.026;13.792;2024-02-28T00:46:34;40.33;;;16.23;;
1436;SDS011;712;51.026;13.792;2024-02-28T00:48:59;43.58;;;16.83;;
1436;SDS011;712;51.026;13.792;2024-02-28T00:51:24;46.17;;;17.63;;
1436;SDS011;712;51.026;13.792;2024-02-28T00:53:49;44.63;;;16.57;;
1436;SDS011;712;51.026;13.792;2024-02-28T00:56:14;45.22;;;16.40;;
1436;SDS011;712;51.026;13.792;2024-02-28T00:58:39;42.63;;;17.20;;
1436;SDS011;712;51.026;13.792;2024-02-28T01:01:05;46.20;;;17.37;;
1436;SDS011;712;51.026;13.792;2024-02-28T01:03:30;36.83;;;15.68;;
1436;SDS011;712;51.026;13.792;2024-02-28T01:05:55;40.83;;;17.47;;
1436;SDS011;712;51.026;13.792;2024-02-28T01:08:20;45.50;;;16.95;;
1436;SDS011;712;51.026;13.792;2024-02-28T01:10:45;55.03;;;18.83;;
1436;SDS011;712;51.026;13.792;2024-02-28T01:13:11;52.13;;;17.67;;
1436;SDS011;712;51.026;13.792;2024-02-28T01:15:36;49.45;;;18.67;;
1436;SDS011;712;51.026;13.792;2024-02-28T01:18:01;37.07;;;15.77;;
1436;SDS011;712;51.026;13.792;2024-02-28T01:20:26;39.90;;;17.20;;
1436;SDS011;712;51.026;13.792;2024-02-28T01:22:52;41.37;;;16.20;;
1436;SDS011;712;51.026;13.792;2024-02-28T01:25:17;42.77;;;17.67;;
1436;SDS011;712;51.026;13.792;2024-02-28T01:27:43;39.92;;;15.95;;
1436;SDS011;712;51.026;13.792;2024-02-28T01:30:08;37.93;;;15.87;;
1436;SDS011;712;51.026;13.792;2024-02-28T01:32:34;42.53;;;17.42;;
1436;SDS011;712;51.026;13.792;2024-02-28T01:34:59;40.70;;;16.23;;
1436;SDS011;712;51.026;13.792;2024-02-28T01:37:24;35.55;;;15.40;;
1436;SDS011;712;51.026;13.792;2024-02-28T01:39:49;34.63;;;15.18;;
1436;SDS011;712;51.026;13.792;2024-02-28T01:42:14;44.10;;;16.07;;
1436;SDS011;712;51.026;13.792;2024-02-28T01:44:44;37.80;;;15.68;;
1436;SDS011;712;51.026;13.792;2024-02-28T01:47:11;38.33;;;14.77;;
1436;SDS011;712;51.026;13.792;2024-02-28T01:49:36;42.25;;;14.80;;
1436;SDS011;712;51.026;13.792;2024-02-28T01:52:01;38.23;;;14.63;;
1436;SDS011;712;51.026;13.792;2024-02-28T01:56:54;34.33;;;13.70;;
1436;SDS011;712;51.026;13.792;2024-02-28T01:59:20;39.63;;;13.87;;
1436;SDS011;712;51.026;13.792;2024-02-28T02:04:12;41.72;;;14.73;;
1436;SDS011;712;51.026;13.792;2024-02-28T02:06:37;40.53;;;15.05;;
1436;SDS011;712;51.026;13.792;2024-02-28T02:09:03;37.15;;;14.60;;
1436;SDS011;712;51.026;13.792;2024-02-28T02:11:28;34.57;;;13.77;;
1436;SDS011;712;51.026;13.792;2024-02-28T02:13:54;37.28;;;13.75;;
1436;SDS011;712;51.026;13.792;2024-02-28T02:16:19;42.97;;;14.37;;
1436;SDS011;712;51.026;13.792;2024-02-28T02:18:46;32.28;;;12.77;;
1436;SDS011;712;51.026;13.792;2024-02-28T02:21:13;34.78;;;13.57;;
1436;SDS011;712;51.026;13.792;2024-02-28T02:23:38;36.95;;;14.30;;
1436;SDS011;712;51.026;13.792;2024-02-28T02:26:06;43.47;;;14.13;;
1436;SDS011;712;51.026;13.792;2024-02-28T02:28:32;39.95;;;14.50;;
1436;SDS011;712;51.026;13.792;2024-02-28T02:30:57;38.33;;;13.05;;
1436;SDS011;712;51.026;13.792;2024-02-28T02:33:22;38.30;;;13.27;;
1436;SDS011;712;51.026;13.792;2024-02-28T02:35:47;49.10;;;14.80;;
1436;SDS011;712;51.026;13.792;2024-02-28T02:38:12;38.37;;;13.80;;
1436;SDS011;712;51.026;13.792;2024-02-28T02:40:37;39.50;;;13.98;;
1436;SDS011;712;51.026;13.792;2024-02-28T02:43:02;38.92;;;12.73;;
1436;SDS011;712;51.026;13.792;2024-02-28T02:45:28;38.77;;;13.03;;
1436;SDS011;712;51.026;13.792;2024-02-28T02:47:53;39.58;;;13.10;;
1436;SDS011;712;51.026;13.792;2024-02-28T02:50:18;37.25;;;12.77;;
1436;SDS011;712;51.026;13.792;2024-02-28T02:52:43;43.23;;;13.73;;
1436;SDS011;712;51.026;13.792;2024-02-28T02:55:08;43.83;;;14.38;;
1436;SDS011;712;51.026;13.792;2024-02-28T02:57:33;43.20;;;14.90;;
1436;SDS011;712;51.026;13.792;2024-02-28T02:59:58;42.15;;;13.23;;
1436;SDS011;712;51.026;13.792;2024-02-28T03:02:24;42.05;;;14.35;;
1436;SDS011;712;51.026;13.792;2024-02-28T03:04:49;42.23;;;13.40;;
1436;SDS011;712;51.026;13.792;2024-02-28T03:07:14;45.15;;;14.20;;
1436;SDS011;712;51.026;13.792;2024-02-28T03:09:39;39.77;;;13.53;;
1436;SDS011;712;51.026;13.792;2024-02-28T03:12:04;46.50;;;14.57;;
1436;SDS011;712;51.026;13.792;2024-02-28T03:14:29;41.25;;;13.63;;
1436;SDS011;712;51.026;13.792;2024-02-28T03:16:55;41.55;;;15.23;;
1436;SDS011;712;51.026;13.792;2024-02-28T03:19:20;50.55;;;15.20;;
1436;SDS011;712;51.026;13.792;2024-02-28T03:21:45;42.05;;;14.30;;
1436;SDS011;712;51.026;13.792;2024-02-28T03:24:11;48.93;;;15.23;;
1436;SDS011;712;51.026;13.792;2024-02-28T03:26:36;47.03;;;14.18;;
1436;SDS011;712;51.026;13.792;2024-02-28T03:29:01;41.70;;;14.77;;
1436;SDS011;712;51.026;13.792;2024-02-28T03:31:26;37.35;;;13.85;;
1436;SDS011;712;51.026;13.792;2024-02-28T03:33:52;40.03;;;13.53;;
1436;SDS011;712;51.026;13.792;2024-02-28T03:36:17;34.80;;;11.98;;
1436;SDS011;712;51.026;13.792;2024-02-28T03:38:42;44.13;;;13.60;;
1436;SDS011;712;51.026;13.792;2024-02-28T03:41:07;38.92;;;14.15;;
1436;SDS011;712;51.026;13.792;2024-02-28T03:43:32;43.50;;;14.27;;
1436;SDS011;712;51.026;13.792;2024-02-28T03:45:57;46.92;;;15.40;;
1436;SDS011;712;51.026;13.792;2024-02-28T03:48:22;48.17;;;14.07;;
1436;SDS011;712;51.026;13.792;2024-02-28T03:50:48;38.57;;;13.83;;
1436;SDS011;712;51.026;13.792;2024-02-28T03:53:13;44.67;;;14.88;;
1436;SDS011;712;51.026;13.792;2024-02-28T03:55:38;42.92;;;14.30;;
1436;SDS011;712;51.026;13.792;2024-02-28T03:58:03;46.40;;;14.97;;
1436;SDS011;712;51.026;13.792;2024-02-28T04:00:28;52.00;;;14.80;;
1436;SDS011;712;51.026;13.792;2024-02-28T04:02:54;37.58;;;14.15;;
1436;SDS011;712;51.026;13.792;2024-02-28T04:05:19;39.90;;;13.63;;
1436;SDS011;712;51.026;13.792;2024-02-28T04:07:44;49.20;;;15.70;;
1436;SDS011;712;51.026;13.792;2024-02-28T04:10:09;45.65;;;15.02;;
1436;SDS011;712;51.026;13.792;2024-02-28T04:12:36;40.50;;;15.23;;
1436;SDS011;712;51.026;13.792;2024-02-28T04:15:01;44.95;;;14.95;;
1436;SDS011;712;51.026;13.792;2024-02-28T04:17:26;44.73;;;14.53;;
1436;SDS011;712;51.026;13.792;2024-02-28T04:19:51;47.67;;;14.00;;
1436;SDS011;712;51.026;13.792;2024-02-28T04:22:16;40.90;;;13.93;;
1436;SDS011;712;51.026;13.792;2024-02-28T04:24:41;48.92;;;14.07;;
1436;SDS011;712;51.026;13.792;2024-02-28T04:27:07;40.10;;;12.50;;
1436;SDS011;712;51.026;13.792;2024-02-28T04:29:34;44.28;;;12.63;;
1436;SDS011;712;51.026;13.792;2024-02-28T04:31:59;48.50;;;12.30;;
1436;SDS011;712;51.026;13.792;2024-02-28T04:34:24;44.67;;;11.57;;
1436;SDS011;712;51.026;13.792;2024-02-28T04:36:50;38.45;;;11.13;;
1436;SDS011;712;51.026;13.792;2024-02-28T04:39:15;37.38;;;11.35;;
1436;SDS011;712;51.026;13.792;2024-02-28T04:41:40;45.25;;;12.35;;
1436;SDS011;712;51.026;13.792;2024-02-28T04:44:05;47.78;;;13.02;;
1436;SDS011;712;51.026;13.792;2024-02-28T04:46:30;41.63;;;11.68;;
1436;SDS011;712;51.026;13.792;2024-02-28T04:48:55;33.17;;;11.40;;
1436;SDS011;712;51.026;13.792;2024-02-28T04:51:21;41.33;;;12.63;;
1436;SDS011;712;51.026;13.792;2024-02-28T04:53:46;37.50;;;12.20;;
1436;SDS011;712;51.026;13.792;2024-02-28T04:56:11;32.40;;;10.13;;
1436;SDS011;712;51.026;13.792;2024-02-28T04:58:36;43.40;;;13.07;;
1436;SDS011;712;51.026;13.792;2024-02-28T05:01:01;45.20;;;14.23;;
1436;SDS011;712;51.026;13.792;2024-02-28T05:03:27;44.47;;;12.77;;
1436;SDS011;712;51.026;13.792;2024-02-28T05:05:52;37.47;;;12.27;;
1436;SDS011;712;51.026;13.792;2024-02-28T05:08:19;48.47;;;12.95;;
1436;SDS011;712;51.026;13.792;2024-02-28T05:10:44;46.13;;;13.32;;
1436;SDS011;712;51.026;13.792;2024-02-28T05:13:09;52.97;;;12.88;;
1436;SDS011;712;51.026;13.792;2024-02-28T05:15:34;41.70;;;12.00;;
1436;SDS011;712;51.026;13.792;2024-02-28T05:17:59;36.53;;;10.65;;
1436;SDS011;712;51.026;13.792;2024-02-28T05:20:25;42.13;;;11.73;;
1436;SDS011;712;51.026;13.792;2024-02-28T05:22:50;37.80;;;11.35;;
1436;SDS011;712;51.026;13.792;2024-02-28T05:25:16;41.13;;;11.52;;
1436;SDS011;712;51.026;13.792;2024-02-28T05:27:41;37.67;;;10.17;;
1436;SDS011;712;51.026;13.792;2024-02-28T05:30:07;34.30;;;10.87;;
1436;SDS011;712;51.026;13.792;2024-02-28T05:32:32;38.03;;;10.90;;
1436;SDS011;712;51.026;13.792;2024-02-28T05:34:57;40.17;;;10.87;;
1436;SDS011;712;51.026;13.792;2024-02-28T05:37:23;32.33;;;9.80;;
1436;SDS011;712;51.026;13.792;2024-02-28T05:39:49;41.60;;;11.13;;
1436;SDS011;712;51.026;13.792;2024-02-28T05:42:14;31.97;;;10.30;;
1436;SDS011;712;51.026;13.792;2024-02-28T05:44:42;48.15;;;11.70;;
1436;SDS011;712;51.026;13.792;2024-02-28T05:47:09;40.92;;;11.52;;
1436;SDS011;712;51.026;13.792;2024-02-28T05:49:34;44.60;;;12.67;;
1436;SDS011;712;51.026;13.792;2024-02-28T05:51:59;50.83;;;11.55;;
1436;SDS011;712;51.026;13.792;2024-02-28T05:54:24;37.30;;;11.38;;
1436;SDS011;712;51.026;13.792;2024-02-28T05:56:49;38.00;;;11.20;;
1436;SDS011;712;51.026;13.792;2024-02-28T05:59:14;42.50;;;12.53;;
1436;SDS011;712;51.026;13.792;2024-02-28T06:01:40;39.53;;;11.55;;
1436;SDS011;712;51.026;13.792;2024-02-28T06:04:05;46.57;;;11.70;;
1436;SDS011;712;51.026;13.792;2024-02-28T06:06:30;45.88;;;12.32;;
1436;SDS011;712;51.026;13.792;2024-02-28T06:08:56;38.08;;;12.15;;
1436;SDS011;712;51.026;13.792;2024-02-28T06:11:21;38.50;;;11.32;;
1436;SDS011;712;51.026;13.792;2024-02-28T06:13:46;48.27;;;13.37;;
1436;SDS011;712;51.026;13.792;2024-02-28T06:16:14;44.50;;;12.43;;
1436;SDS011;712;51.026;13.792;2024-02-28T06:18:40;38.35;;;11.20;;
1436;SDS011;712;51.026;13.792;2024-02-28T06:21:06;36.37;;;11.87;;
1436;SDS011;712;51.026;13.792;2024-02-28T06:23:31;43.45;;;11.50;;
1436;SDS011;712;51.026;13.792;2024-02-28T06:25:56;37.85;;;10.90;;
1436;SDS011;712;51.026;13.792;2024-02-28T06:28:21;32.25;;;10.73;;
1436;SDS011;712;51.026;13.792;2024-02-28T06:30:47;41.37;;;10.40;;
1436;SDS011;712;51.026;13.792;2024-02-28T06:33:12;35.67;;;10.90;;
1436;SDS011;712;51.026;13.792;2024-02-28T06:35:38;40.45;;;11.55;;
1436;SDS011;712;51.026;13.792;2024-02-28T06:38:03;38.97;;;13.00;;
1436;SDS011;712;51.026;13.792;2024-02-28T06:40:28;40.83;;;12.33;;
1436;SDS011;712;51.026;13.792;2024-02-28T06:42:54;36.17;;;11.20;;
1436;SDS011;712;51.026;13.792;2024-02-28T06:45:19;41.17;;;13.00;;
1436;SDS011;712;51.026;13.792;2024-02-28T06:47:44;40.37;;;11.73;;
1436;SDS011;712;51.026;13.792;2024-02-28T06:50:10;44.13;;;12.57;;
1436;SDS011;712;51.026;13.792;2024-02-28T06:52:35;43.93;;;12.70;;
1436;SDS011;712;51.026;13.792;2024-02-28T06:55:00;42.00;;;12.23;;
1436;SDS011;712;51.026;13.792;2024-02-28T06:57:28;40.75;;;12.48;;
1436;SDS011;712;51.026;13.792;2024-02-28T06:59:53;39.08;;;13.32;;
1436;SDS011;712;51.026;13.792;2024-02-28T07:02:18;42.28;;;13.00;;
1436;SDS011;712;51.026;13.792;2024-02-28T07:04:44;43.35;;;13.35;;
1436;SDS011;712;51.026;13.792;2024-02-28T07:07:09;38.70;;;12.30;;
1436;SDS011;712;51.026;13.792;2024-02-28T07:09:34;41.73;;;12.47;;
1436;SDS011;712;51.026;13.792;2024-02-28T07:11:59;49.27;;;15.00;;
1436;SDS011;712;51.026;13.792;2024-02-28T07:14:26;51.72;;;16.42;;
1436;SDS011;712;51.026;13.792;2024-02-28T07:16:51;55.45;;;15.55;;
1436;SDS011;712;51.026;13.792;2024-02-28T07:19:17;51.90;;;16.08;;
1436;SDS011;712;51.026;13.792;2024-02-28T07:21:42;55.90;;;15.30;;
1436;SDS011;712;51.026;13.792;2024-02-28T07:24:07;52.08;;;14.90;;
1436;SDS011;712;51.026;13.792;2024-02-28T07:26:33;51.15;;;14.48;;
1436;SDS011;712;51.026;13.792;2024-02-28T07:28:58;43.55;;;13.40;;
1436;SDS011;712;51.026;13.792;2024-02-28T07:31:23;46.55;;;13.90;;
1436;SDS011;712;51.026;13.792;2024-02-28T07:33:48;44.60;;;13.60;;
1436;SDS011;712;51.026;13.792;2024-02-28T07:36:13;42.75;;;13.25;;
1436;SDS011;712;51.026;13.792;2024-02-28T07:38:40;39.85;;;12.20;;
1436;SDS011;712;51.026;13.792;2024-02-28T07:41:06;38.53;;;12.60;;
1436;SDS011;712;51.026;13.792;2024-02-28T07:43:31;29.52;;;10.77;;
1436;SDS011;712;51.026;13.792;2024-02-28T07:46:02;29.42;;;8.98;;
1436;SDS011;712;51.026;13.792;2024-02-28T07:48:27;29.50;;;10.80;;
1436;SDS011;712;51.026;13.792;2024-02-28T07:50:53;26.97;;;9.63;;
1436;SDS011;712;51.026;13.792;2024-02-28T07:53:18;33.38;;;11.05;;
1436;SDS011;712;51.026;13.792;2024-02-28T07:55:43;33.27;;;10.77;;
1436;SDS011;712;51.026;13.792;2024-02-28T07:58:08;32.43;;;10.90;;
1436;SDS011;712;51.026;13.792;2024-02-28T08:00:34;30.80;;;10.95;;
1436;SDS011;712;51.026;13.792;2024-02-28T08:02:59;34.75;;;10.65;;
1436;SDS011;712;51.026;13.792;2024-02-28T08:05:24;28.97;;;10.00;;
1436;SDS011;712;51.026;13.792;2024-02-28T08:07:49;30.98;;;10.00;;
1436;SDS011;712;51.026;13.792;2024-02-28T08:10:15;32.38;;;10.52;;
1436;SDS011;712;51.026;13.792;2024-02-28T08:12:40;32.40;;;10.27;;
1436;SDS011;712;51.026;13.792;2024-02-28T08:15:05;28.37;;;10.10;;
1436;SDS011;712;51.026;13.792;2024-02-28T08:17:30;28.17;;;9.17;;
1436;SDS011;712;51.026;13.792;2024-02-28T08:19:56;25.48;;;9.25;;
1436;SDS011;712;51.026;13.792;2024-02-28T08:22:21;28.30;;;10.30;;
1436;SDS011;712;51.026;13.792;2024-02-28T08:24:46;25.30;;;9.33;;
1436;SDS011;712;51.026;13.792;2024-02-28T08:27:11;23.83;;;8.70;;
1436;SDS011;712;51.026;13.792;2024-02-28T08:29:39;26.07;;;10.03;;
1436;SDS011;712;51.026;13.792;2024-02-28T08:32:08;25.15;;;8.65;;
1436;SDS011;712;51.026;13.792;2024-02-28T08:34:33;27.95;;;9.48;;
1436;SDS011;712;51.026;13.792;2024-02-28T08:36:58;26.77;;;9.45;;
1436;SDS011;712;51.026;13.792;2024-02-28T08:39:23;32.95;;;10.50;;
1436;SDS011;712;51.026;13.792;2024-02-28T08:41:49;26.67;;;10.30;;
1436;SDS011;712;51.026;13.792;2024-02-28T08:44:14;34.50;;;11.13;;
1436;SDS011;712;51.026;13.792;2024-02-28T08:46:39;30.83;;;10.60;;
1436;SDS011;712;51.026;13.792;2024-02-28T08:49:05;31.75;;;11.75;;
1436;SDS011;712;51.026;13.792;2024-02-28T08:51:31;30.03;;;10.10;;
1436;SDS011;712;51.026;13.792;2024-02-28T08:53:56;32.95;;;11.15;;
1436;SDS011;712;51.026;13.792;2024-02-28T08:56:22;36.83;;;11.98;;
1436;SDS011;712;51.026;13.792;2024-02-28T08:58:47;37.50;;;11.80;;
1436;SDS011;712;51.026;13.792;2024-02-28T09:01:13;35.67;;;11.67;;
1436;SDS011;712;51.026;13.792;2024-02-28T09:03:38;38.15;;;12.52;;
1436;SDS011;712;51.026;13.792;2024-02-28T09:06:03;40.67;;;13.70;;
1436;SDS011;712;51.026;13.792;2024-02-28T09:08:29;31.70;;;11.33;;
1436;SDS011;712;51.026;13.792;2024-02-28T09:10:54;33.88;;;11.43;;
1436;SDS011;712;51.026;13.792;2024-02-28T09:13:19;35.47;;;12.05;;
1436;SDS011;712;51.026;13.792;2024-02-28T09:15:45;31.45;;;10.82;;
1436;SDS011;712;51.026;13.792;2024-02-28T09:18:10;30.65;;;11.18;;
1436;SDS011;712;51.026;13.792;2024-02-28T09:20:35;25.63;;;9.47;;
1436;SDS011;712;51.026;13.792;2024-02-28T09:23:00;27.23;;;9.65;;
1436;SDS011;712;51.026;13.792;2024-02-28T09:25:25;25.50;;;9.30;;
1436;SDS011;712;51.026;13.792;2024-02-28T09:27:50;28.48;;;9.65;;
1436;SDS011;712;51.026;13.792;2024-02-28T09:30:17;24.65;;;9.13;;
1436;SDS011;712;51.026;13.792;2024-02-28T09:32:43;25.08;;;8.73;;
1436;SDS011;712;51.026;13.792;2024-02-28T09:35:08;26.15;;;9.20;;
1436;SDS011;712;51.026;13.792;2024-02-28T09:37:33;23.70;;;9.33;;
1436;SDS011;712;51.026;13.792;2024-02-28T09:39:58;22.87;;;9.33;;
1436;SDS011;712;51.026;13.792;2024-02-28T09:42:23;27.67;;;10.35;;
1436;SDS011;712;51.026;13.792;2024-02-28T09:44:49;29.13;;;10.57;;
1436;SDS011;712;51.026;13.792;2024-02-28T09:47:14;26.60;;;10.03;;
1436;SDS011;712;51.026;13.792;2024-02-28T09:49:40;24.27;;;10.13;;
1436;SDS011;712;51.026;13.792;2024-02-28T09:52:06;31.92;;;12.48;;
1436;SDS011;712;51.026;13.792;2024-02-28T09:54:31;29.03;;;10.63;;
1436;SDS011;712;51.026;13.792;2024-02-28T09:56:57;25.42;;;10.40;;
1436;SDS011;712;51.026;13.792;2024-02-28T09:59:23;31.17;;;11.83;;
1436;SDS011;712;51.026;13.792;2024-02-28T10:01:53;33.72;;;12.55;;
1436;SDS011;712;51.026;13.792;2024-02-28T10:04:18;35.10;;;12.77;;
1436;SDS011;712;51.026;13.792;2024-02-28T10:06:44;36.58;;;13.07;;
1436;SDS011;712;51.026;13.792;2024-02-28T10:09:09;35.83;;;12.98;;
1436;SDS011;712;51.026;13.792;2024-02-28T10:11:35;35.03;;;12.60;;
1436;SDS011;712;51.026;13.792;2024-02-28T10:14:00;34.27;;;12.47;;
1436;SDS011;712;51.026;13.792;2024-02-28T10:16:26;34.17;;;13.38;;
1436;SDS011;712;51.026;13.792;2024-02-28T10:18:51;31.33;;;11.85;;
1436;SDS011;712;51.026;13.792;2024-02-28T10:21:16;35.77;;;12.67;;
1436;SDS011;712;51.026;13.792;2024-02-28T10:23:42;37.20;;;14.02;;
1436;SDS011;712;51.026;13.792;2024-02-28T10:26:09;35.80;;;14.38;;
1436;SDS011;712;51.026;13.792;2024-02-28T10:28:36;38.50;;;14.98;;
1436;SDS011;712;51.026;13.792;2024-02-28T10:31:01;38.50;;;15.50;;
1436;SDS011;712;51.026;13.792;2024-02-28T10:33:26;37.90;;;15.15;;
1436;SDS011;712;51.026;13.792;2024-02-28T10:35:54;38.38;;;15.27;;
1436;SDS011;712;51.026;13.792;2024-02-28T10:38:19;39.20;;;15.48;;
1436;SDS011;712;51.026;13.792;2024-02-28T10:40:44;38.80;;;15.82;;
1436;SDS011;712;51.026;13.792;2024-02-28T10:43:10;38.35;;;15.50;;
1436;SDS011;712;51.026;13.792;2024-02-28T10:45:36;36.53;;;15.57;;
1436;SDS011;712;51.026;13.792;2024-02-28T10:48:01;39.78;;;14.57;;
1436;SDS011;712;51.026;13.792;2024-02-28T10:50:27;38.42;;;14.60;;
1436;SDS011;712;51.026;13.792;2024-02-28T10:52:52;36.70;;;14.17;;
1436;SDS011;712;51.026;13.792;2024-02-28T10:55:22;34.90;;;12.70;;
1436;SDS011;712;51.026;13.792;2024-02-28T10:57:54;35.03;;;13.98;;
1436;SDS011;712;51.026;13.792;2024-02-28T11:00:21;36.80;;;14.38;;
1436;SDS011;712;51.026;13.792;2024-02-28T11:02:46;33.07;;;13.13;;
1436;SDS011;712;51.026;13.792;2024-02-28T11:05:11;33.42;;;13.10;;
1436;SDS011;712;51.026;13.792;2024-02-28T11:07:40;30.15;;;12.40;;
1436;SDS011;712;51.026;13.792;2024-02-28T11:10:05;33.08;;;12.82;;
1436;SDS011;712;51.026;13.792;2024-02-28T11:12:31;30.20;;;12.10;;
1436;SDS011;712;51.026;13.792;2024-02-28T11:15:00;32.17;;;13.00;;
1436;SDS011;712;51.026;13.792;2024-02-28T11:17:27;31.13;;;12.50;;
1436;SDS011;712;51.026;13.792;2024-02-28T11:19:56;35.13;;;12.65;;
1436;SDS011;712;51.026;13.792;2024-02-28T11:22:21;30.40;;;12.20;;
1436;SDS011;712;51.026;13.792;2024-02-28T11:24:47;28.98;;;11.82;;
1436;SDS011;712;51.026;13.792;2024-02-28T11:27:13;35.35;;;13.18;;
1436;SDS011;712;51.026;13.792;2024-02-28T11:29:38;31.92;;;12.70;;
1436;SDS011;712;51.026;13.792;2024-02-28T11:32:04;33.30;;;12.25;;
1436;SDS011;712;51.026;13.792;2024-02-28T11:34:30;28.25;;;11.45;;
1436;SDS011;712;51.026;13.792;2024-02-28T11:36:55;26.95;;;10.63;;
1436;SDS011;712;51.026;13.792;2024-02-28T11:39:20;25.27;;;10.40;;
1436;SDS011;712;51.026;13.792;2024-02-28T11:41:49;25.02;;;10.40;;
1436;SDS011;712;51.026;13.792;2024-02-28T11:44:15;26.20;;;10.88;;
1436;SDS011;712;51.026;13.792;2024-02-28T11:46:47;25.83;;;11.02;;
1436;SDS011;712;51.026;13.792;2024-02-28T11:49:12;25.63;;;10.75;;
1436;SDS011;712;51.026;13.792;2024-02-28T11:51:39;26.08;;;10.95;;
1436;SDS011;712;51.026;13.792;2024-02-28T11:54:04;26.77;;;11.27;;
1436;SDS011;712;51.026;13.792;2024-02-28T11:56:30;28.88;;;10.85;;
1436;SDS011;712;51.026;13.792;2024-02-28T11:58:58;23.97;;;10.10;;
1436;SDS011;712;51.026;13.792;2024-02-28T12:01:33;26.83;;;10.48;;
1436;SDS011;712;51.026;13.792;2024-02-28T12:03:58;24.95;;;9.82;;
1436;SDS011;712;51.026;13.792;2024-02-28T12:06:23;23.50;;;9.77;;
1436;SDS011;712;51.026;13.792;2024-02-28T12:08:48;25.17;;;9.43;;
1436;SDS011;712;51.026;13.792;2024-02-28T12:11:15;25.83;;;9.63;;
1436;SDS011;712;51.026;13.792;2024-02-28T12:13:40;22.47;;;9.87;;
1436;SDS011;712;51.026;13.792;2024-02-28T12:16:05;25.50;;;10.73;;
1436;SDS011;712;51.026;13.792;2024-02-28T12:18:30;24.30;;;10.32;;
1436;SDS011;712;51.026;13.792;2024-02-28T12:20:56;26.55;;;10.60;;
1436;SDS011;712;51.026;13.792;2024-02-28T12:23:21;24.53;;;10.53;;
1436;SDS011;712;51.026;13.792;2024-02-28T12:25:46;26.57;;;11.07;;
1436;SDS011;712;51.026;13.792;2024-02-28T12:28:11;25.27;;;10.50;;
1436;SDS011;712;51.026;13.792;2024-02-28T12:30:41;27.58;;;11.07;;
1436;SDS011;712;51.026;13.792;2024-02-28T12:33:07;27.75;;;11.23;;
1436;SDS011;712;51.026;13.792;2024-02-28T12:35:32;27.10;;;11.30;;
1436;SDS011;712;51.026;13.792;2024-02-28T12:37:57;30.27;;;11.48;;
1436;SDS011;712;51.026;13.792;2024-02-28T12:40:22;29.00;;;11.95;;
1436;SDS011;712;51.026;13.792;2024-02-28T12:42:47;26.48;;;11.70;;
1436;SDS011;712;51.026;13.792;2024-02-28T12:45:13;27.97;;;11.63;;
1436;SDS011;712;51.026;13.792;2024-02-28T12:47:39;28.73;;;12.23;;
1436;SDS011;712;51.026;13.792;2024-02-28T12:50:04;28.13;;;12.88;;
1436;SDS011;712;51.026;13.792;2024-02-28T12:52:32;29.30;;;12.10;;
1436;SDS011;712;51.026;13.792;2024-02-28T12:54:57;31.92;;;13.05;;
1436;SDS011;712;51.026;13.792;2024-02-28T12:57:22;30.48;;;12.95;;
1436;SDS011;712;51.026;13.792;2024-02-28T12:59:47;30.77;;;14.07;;
1436;SDS011;712;51.026;13.792;2024-02-28T13:02:12;30.42;;;13.43;;
1436;SDS011;712;51.026;13.792;2024-02-28T13:04:37;30.13;;;13.60;;
1436;SDS011;712;51.026;13.792;2024-02-28T13:07:04;28.70;;;12.00;;
1436;SDS011;712;51.026;13.792;2024-02-28T13:09:29;26.90;;;12.67;;
1436;SDS011;712;51.026;13.792;2024-02-28T13:11:54;30.70;;;12.73;;
1436;SDS011;712;51.026;13.792;2024-02-28T13:14:19;28.15;;;12.68;;
1436;SDS011;712;51.026;13.792;2024-02-28T13:16:44;30.03;;;12.70;;
1436;SDS011;712;51.026;13.792;2024-02-28T13:19:10;30.17;;;13.60;;
1436;SDS011;712;51.026;13.792;2024-02-28T13:21:35;37.73;;;15.07;;
1436;SDS011;712;51.026;13.792;2024-02-28T13:24:01;30.57;;;13.57;;
1436;SDS011;712;51.026;13.792;2024-02-28T13:26:26;29.40;;;12.65;;
1436;SDS011;712;51.026;13.792;2024-02-28T13:28:51;29.17;;;12.70;;
1436;SDS011;712;51.026;13.792;2024-02-28T13:31:16;27.30;;;12.05;;
1436;SDS011;712;51.026;13.792;2024-02-28T13:33:42;30.63;;;13.80;;
1436;SDS011;712;51.026;13.792;2024-02-28T13:36:07;29.40;;;13.48;;
1436;SDS011;712;51.026;13.792;2024-02-28T13:38:33;29.45;;;13.73;;
1436;SDS011;712;51.026;13.792;2024-02-28T13:40:58;30.70;;;13.37;;
1436;SDS011;712;51.026;13.792;2024-02-28T13:43:24;28.20;;;12.70;;
1436;SDS011;712;51.026;13.792;2024-02-28T13:45:50;26.35;;;13.50;;
1436;SDS011;712;51.026;13.792;2024-02-28T13:48:21;27.60;;;13.07;;
1436;SDS011;712;51.026;13.792;2024-02-28T13:50:47;28.83;;;13.43;;
1436;SDS011;712;51.026;13.792;2024-02-28T13:53:13;29.25;;;13.80;;
1436;SDS011;712;51.026;13.792;2024-02-28T13:55:38;27.70;;;12.65;;
1436;SDS011;712;51.026;13.792;2024-02-28T13:58:03;25.60;;;12.57;;
1436;SDS011;712;51.026;13.792;2024-02-28T14:00:29;30.38;;;14.55;;
1436;SDS011;712;51.026;13.792;2024-02-28T14:02:54;29.67;;;14.80;;
1436;SDS011;712;51.026;13.792;2024-02-28T14:05:19;27.23;;;14.30;;
1436;SDS011;712;51.026;13.792;2024-02-28T14:07:44;27.45;;;14.82;;
1436;SDS011;712;51.026;13.792;2024-02-28T14:10:09;28.80;;;14.52;;
1436;SDS011;712;51.026;13.792;2024-02-28T14:12:36;28.95;;;14.90;;
1436;SDS011;712;51.026;13.792;2024-02-28T14:15:01;27.83;;;15.07;;
1436;SDS011;712;51.026;13.792;2024-02-28T14:17:26;30.10;;;15.75;;
1436;SDS011;712;51.026;13.792;2024-02-28T14:19:52;28.73;;;14.90;;
1436;SDS011;712;51.026;13.792;2024-02-28T14:22:17;27.73;;;14.37;;
1436;SDS011;712;51.026;13.792;2024-02-28T14:24:42;27.48;;;13.68;;
1436;SDS011;712;51.026;13.792;2024-02-28T14:27:07;27.27;;;14.63;;
1436;SDS011;712;51.026;13.792;2024-02-28T14:29:32;28.97;;;14.20;;
1436;SDS011;712;51.026;13.792;2024-02-28T14:31:57;27.23;;;15.32;;
1436;SDS011;712;51.026;13.792;2024-02-28T14:34:23;25.00;;;13.47;;
1436;SDS011;712;51.026;13.792;2024-02-28T14:36:48;25.13;;;13.77;;
1436;SDS011;712;51.026;13.792;2024-02-28T14:39:13;28.58;;;14.20;;
1436;SDS011;712;51.026;13.792;2024-02-28T14:41:41;25.65;;;13.93;;